ěÝzenÝ letovÚho provozu ╚eskÚ republiky
Letiste: LKCV Aktualizace: 09.12.2022 10:59:32  UTC
 METAR LKCV 09.12. 11:00 ...
METAR LKCV 091100Z 08006KT 9000 OVC025 01/M01 Q1005 NOSIG RMK BLU BLU=
 TAF LKCV 09.12. 05:00 COR
TAF COR LKCV 090500Z 0906/1006 15005KT 9999 BKN045      PROB30 0906/0909 VRB02KT 4000 MIFG BR BKN013      BECMG 0909/0911 04007KT BKN025      TEMPO 0914/1002 5000 SNRA BKN015      PROB40 TEMPO 0915/1002 3000 SN BR BKN006      BECMG 1000/1002 33005KT=